sensor_id;sensor_type;location;lat;lon;timestamp;P1;durP1;ratioP1;P2;durP2;ratioP2
45011;SDS011;63444;48.148;11.542;2023-08-20T00:00:13;4.55;;;3.50;;
45011;SDS011;63444;48.148;11.542;2023-08-20T00:02:41;5.82;;;3.50;;
45011;SDS011;63444;48.148;11.542;2023-08-20T00:05:07;5.13;;;3.50;;
45011;SDS011;63444;48.148;11.542;2023-08-20T00:07:34;5.70;;;3.38;;
45011;SDS011;63444;48.148;11.542;2023-08-20T00:10:00;4.45;;;3.30;;
45011;SDS011;63444;48.148;11.542;2023-08-20T00:12:27;6.93;;;3.42;;
45011;SDS011;63444;48.148;11.542;2023-08-20T00:15:03;5.95;;;3.60;;
45011;SDS011;63444;48.148;11.542;2023-08-20T00:17:32;4.97;;;3.58;;
45011;SDS011;63444;48.148;11.542;2023-08-20T00:20:00;5.00;;;3.30;;
45011;SDS011;63444;48.148;11.542;2023-08-20T00:22:26;5.10;;;3.47;;
45011;SDS011;63444;48.148;11.542;2023-08-20T00:24:52;4.45;;;3.35;;
45011;SDS011;63444;48.148;11.542;2023-08-20T00:27:18;5.10;;;3.45;;
45011;SDS011;63444;48.148;11.542;2023-08-20T00:29:45;5.10;;;3.20;;
45011;SDS011;63444;48.148;11.542;2023-08-20T00:32:10;4.90;;;3.70;;
45011;SDS011;63444;48.148;11.542;2023-08-20T00:34:36;6.20;;;3.60;;
45011;SDS011;63444;48.148;11.542;2023-08-20T00:37:02;3.35;;;3.00;;
45011;SDS011;63444;48.148;11.542;2023-08-20T00:39:28;3.90;;;3.42;;
45011;SDS011;63444;48.148;11.542;2023-08-20T00:41:54;5.20;;;3.58;;
45011;SDS011;63444;48.148;11.542;2023-08-20T00:44:20;6.22;;;3.55;;
45011;SDS011;63444;48.148;11.542;2023-08-20T00:46:45;7.43;;;3.70;;
45011;SDS011;63444;48.148;11.542;2023-08-20T00:49:11;6.40;;;3.22;;
45011;SDS011;63444;48.148;11.542;2023-08-20T00:51:37;6.30;;;3.30;;
45011;SDS011;63444;48.148;11.542;2023-08-20T00:54:03;4.85;;;3.50;;
45011;SDS011;63444;48.148;11.542;2023-08-20T00:56:30;4.38;;;2.88;;
45011;SDS011;63444;48.148;11.542;2023-08-20T00:58:55;3.92;;;3.50;;
45011;SDS011;63444;48.148;11.542;2023-08-20T01:01:22;4.30;;;3.50;;
45011;SDS011;63444;48.148;11.542;2023-08-20T01:03:48;4.30;;;3.60;;
45011;SDS011;63444;48.148;11.542;2023-08-20T01:09:34;4.88;;;3.55;;
45011;SDS011;63444;48.148;11.542;2023-08-20T01:12:00;4.35;;;3.30;;
45011;SDS011;63444;48.148;11.542;2023-08-20T01:14:27;4.47;;;3.10;;
45011;SDS011;63444;48.148;11.542;2023-08-20T01:16:53;7.43;;;3.00;;
45011;SDS011;63444;48.148;11.542;2023-08-20T01:19:20;4.55;;;3.33;;
45011;SDS011;63444;48.148;11.542;2023-08-20T01:22:05;5.10;;;3.50;;
45011;SDS011;63444;48.148;11.542;2023-08-20T01:27:52;5.15;;;3.10;;
45011;SDS011;63444;48.148;11.542;2023-08-20T01:30:33;4.50;;;3.70;;
45011;SDS011;63444;48.148;11.542;2023-08-20T01:32:59;3.92;;;3.53;;
45011;SDS011;63444;48.148;11.542;2023-08-20T01:35:26;5.90;;;3.85;;
45011;SDS011;63444;48.148;11.542;2023-08-20T01:37:52;5.53;;;3.38;;
45011;SDS011;63444;48.148;11.542;2023-08-20T01:40:17;5.47;;;3.53;;
45011;SDS011;63444;48.148;11.542;2023-08-20T01:42:43;4.43;;;3.50;;
45011;SDS011;63444;48.148;11.542;2023-08-20T01:45:09;5.57;;;3.72;;
45011;SDS011;63444;48.148;11.542;2023-08-20T01:47:35;5.63;;;3.63;;
45011;SDS011;63444;48.148;11.542;2023-08-20T01:50:01;4.07;;;3.25;;
45011;SDS011;63444;48.148;11.542;2023-08-20T01:52:27;6.15;;;3.60;;
45011;SDS011;63444;48.148;11.542;2023-08-20T01:54:54;3.90;;;3.50;;
45011;SDS011;63444;48.148;11.542;2023-08-20T01:57:20;6.53;;;3.55;;
45011;SDS011;63444;48.148;11.542;2023-08-20T01:59:46;4.63;;;3.40;;
45011;SDS011;63444;48.148;11.542;2023-08-20T02:02:12;6.35;;;3.67;;
45011;SDS011;63444;48.148;11.542;2023-08-20T02:04:38;5.57;;;3.55;;
45011;SDS011;63444;48.148;11.542;2023-08-20T02:07:04;4.32;;;3.33;;
45011;SDS011;63444;48.148;11.542;2023-08-20T02:09:29;4.47;;;3.13;;
45011;SDS011;63444;48.148;11.542;2023-08-20T02:11:55;5.80;;;3.88;;
45011;SDS011;63444;48.148;11.542;2023-08-20T02:14:20;4.40;;;3.60;;
45011;SDS011;63444;48.148;11.542;2023-08-20T02:16:46;4.15;;;3.72;;
45011;SDS011;63444;48.148;11.542;2023-08-20T02:19:12;5.90;;;3.90;;
45011;SDS011;63444;48.148;11.542;2023-08-20T02:21:39;6.00;;;3.30;;
45011;SDS011;63444;48.148;11.542;2023-08-20T02:24:04;7.43;;;3.58;;
45011;SDS011;63444;48.148;11.542;2023-08-20T02:26:30;6.78;;;3.53;;
45011;SDS011;63444;48.148;11.542;2023-08-20T02:28:56;5.97;;;3.40;;
45011;SDS011;63444;48.148;11.542;2023-08-20T02:31:21;8.50;;;4.10;;
45011;SDS011;63444;48.148;11.542;2023-08-20T02:33:47;4.38;;;3.35;;
45011;SDS011;63444;48.148;11.542;2023-08-20T02:36:13;6.13;;;3.78;;
45011;SDS011;63444;48.148;11.542;2023-08-20T02:38:38;5.13;;;3.40;;
45011;SDS011;63444;48.148;11.542;2023-08-20T02:41:05;7.88;;;3.78;;
45011;SDS011;63444;48.148;11.542;2023-08-20T02:43:31;5.30;;;3.50;;
45011;SDS011;63444;48.148;11.542;2023-08-20T02:45:57;4.97;;;3.70;;
45011;SDS011;63444;48.148;11.542;2023-08-20T02:48:22;5.05;;;3.95;;
45011;SDS011;63444;48.148;11.542;2023-08-20T02:50:52;5.65;;;3.50;;
45011;SDS011;63444;48.148;11.542;2023-08-20T02:53:19;5.65;;;3.78;;
45011;SDS011;63444;48.148;11.542;2023-08-20T02:55:45;4.57;;;3.85;;
45011;SDS011;63444;48.148;11.542;2023-08-20T02:58:11;6.78;;;3.60;;
45011;SDS011;63444;48.148;11.542;2023-08-20T03:00:37;6.40;;;3.92;;
45011;SDS011;63444;48.148;11.542;2023-08-20T03:03:02;5.20;;;3.90;;
45011;SDS011;63444;48.148;11.542;2023-08-20T03:05:31;5.68;;;3.60;;
45011;SDS011;63444;48.148;11.542;2023-08-20T03:07:57;6.15;;;3.58;;
45011;SDS011;63444;48.148;11.542;2023-08-20T03:10:23;6.90;;;3.78;;
45011;SDS011;63444;48.148;11.542;2023-08-20T03:12:49;5.45;;;3.60;;
45011;SDS011;63444;48.148;11.542;2023-08-20T03:15:15;4.53;;;3.45;;
45011;SDS011;63444;48.148;11.542;2023-08-20T03:17:40;5.32;;;3.78;;
45011;SDS011;63444;48.148;11.542;2023-08-20T03:20:06;5.25;;;3.50;;
45011;SDS011;63444;48.148;11.542;2023-08-20T03:22:32;6.20;;;4.05;;
45011;SDS011;63444;48.148;11.542;2023-08-20T03:24:58;5.45;;;3.88;;
45011;SDS011;63444;48.148;11.542;2023-08-20T03:27:24;6.32;;;4.00;;
45011;SDS011;63444;48.148;11.542;2023-08-20T03:29:51;4.57;;;3.40;;
45011;SDS011;63444;48.148;11.542;2023-08-20T03:32:17;7.03;;;3.90;;
45011;SDS011;63444;48.148;11.542;2023-08-20T03:34:43;5.72;;;3.70;;
45011;SDS011;63444;48.148;11.542;2023-08-20T03:37:08;5.30;;;3.60;;
45011;SDS011;63444;48.148;11.542;2023-08-20T03:39:34;7.15;;;3.78;;
45011;SDS011;63444;48.148;11.542;2023-08-20T03:42:00;5.63;;;3.40;;
45011;SDS011;63444;48.148;11.542;2023-08-20T03:44:25;6.60;;;4.10;;
45011;SDS011;63444;48.148;11.542;2023-08-20T03:46:51;6.10;;;4.10;;
45011;SDS011;63444;48.148;11.542;2023-08-20T03:49:17;4.47;;;4.05;;
45011;SDS011;63444;48.148;11.542;2023-08-20T03:51:42;3.95;;;3.30;;
45011;SDS011;63444;48.148;11.542;2023-08-20T03:54:08;7.10;;;4.05;;
45011;SDS011;63444;48.148;11.542;2023-08-20T03:56:34;6.03;;;3.78;;
45011;SDS011;63444;48.148;11.542;2023-08-20T03:59:00;6.57;;;4.10;;
45011;SDS011;63444;48.148;11.542;2023-08-20T04:01:26;4.65;;;3.72;;
45011;SDS011;63444;48.148;11.542;2023-08-20T04:03:52;7.53;;;3.70;;
45011;SDS011;63444;48.148;11.542;2023-08-20T04:06:17;5.55;;;3.90;;
45011;SDS011;63444;48.148;11.542;2023-08-20T04:08:43;4.72;;;3.97;;
45011;SDS011;63444;48.148;11.542;2023-08-20T04:11:08;7.40;;;3.67;;
45011;SDS011;63444;48.148;11.542;2023-08-20T04:13:34;9.18;;;3.80;;
45011;SDS011;63444;48.148;11.542;2023-08-20T04:16:00;4.45;;;3.65;;
45011;SDS011;63444;48.148;11.542;2023-08-20T04:18:25;3.88;;;3.33;;
45011;SDS011;63444;48.148;11.542;2023-08-20T04:20:51;5.55;;;3.88;;
45011;SDS011;63444;48.148;11.542;2023-08-20T04:23:18;6.78;;;3.72;;
45011;SDS011;63444;48.148;11.542;2023-08-20T04:25:44;5.65;;;3.50;;
45011;SDS011;63444;48.148;11.542;2023-08-20T04:28:13;5.50;;;3.58;;
45011;SDS011;63444;48.148;11.542;2023-08-20T04:30:38;4.57;;;3.22;;
45011;SDS011;63444;48.148;11.542;2023-08-20T04:33:04;6.47;;;3.33;;
45011;SDS011;63444;48.148;11.542;2023-08-20T04:35:30;3.75;;;3.00;;
45011;SDS011;63444;48.148;11.542;2023-08-20T04:37:56;4.72;;;3.17;;
45011;SDS011;63444;48.148;11.542;2023-08-20T04:40:21;5.30;;;3.50;;
45011;SDS011;63444;48.148;11.542;2023-08-20T04:42:47;7.70;;;3.55;;
45011;SDS011;63444;48.148;11.542;2023-08-20T04:45:13;6.85;;;3.63;;
45011;SDS011;63444;48.148;11.542;2023-08-20T04:47:39;4.00;;;3.60;;
45011;SDS011;63444;48.148;11.542;2023-08-20T04:50:04;4.05;;;3.40;;
45011;SDS011;63444;48.148;11.542;2023-08-20T04:52:33;5.53;;;3.75;;
45011;SDS011;63444;48.148;11.542;2023-08-20T04:54:59;3.85;;;3.22;;
45011;SDS011;63444;48.148;11.542;2023-08-20T04:57:25;4.78;;;3.33;;
45011;SDS011;63444;48.148;11.542;2023-08-20T04:59:51;5.30;;;3.60;;
45011;SDS011;63444;48.148;11.542;2023-08-20T05:02:16;6.43;;;3.40;;
45011;SDS011;63444;48.148;11.542;2023-08-20T05:04:42;4.75;;;3.53;;
45011;SDS011;63444;48.148;11.542;2023-08-20T05:07:08;4.75;;;3.05;;
45011;SDS011;63444;48.148;11.542;2023-08-20T05:09:34;4.97;;;3.40;;
45011;SDS011;63444;48.148;11.542;2023-08-20T05:11:59;6.43;;;3.83;;
45011;SDS011;63444;48.148;11.542;2023-08-20T05:14:25;3.92;;;3.22;;
45011;SDS011;63444;48.148;11.542;2023-08-20T05:16:51;6.30;;;3.80;;
45011;SDS011;63444;48.148;11.542;2023-08-20T05:19:16;9.23;;;3.72;;
45011;SDS011;63444;48.148;11.542;2023-08-20T05:21:42;5.70;;;3.80;;
45011;SDS011;63444;48.148;11.542;2023-08-20T05:24:09;6.05;;;3.67;;
45011;SDS011;63444;48.148;11.542;2023-08-20T05:26:34;4.45;;;3.40;;
45011;SDS011;63444;48.148;11.542;2023-08-20T05:29:00;7.22;;;3.60;;
45011;SDS011;63444;48.148;11.542;2023-08-20T05:31:25;5.63;;;3.45;;
45011;SDS011;63444;48.148;11.542;2023-08-20T05:33:51;6.45;;;3.60;;
45011;SDS011;63444;48.148;11.542;2023-08-20T05:36:17;6.70;;;4.07;;
45011;SDS011;63444;48.148;11.542;2023-08-20T05:38:42;5.25;;;3.40;;
45011;SDS011;63444;48.148;11.542;2023-08-20T05:41:08;5.45;;;3.67;;
45011;SDS011;63444;48.148;11.542;2023-08-20T05:43:34;3.70;;;3.03;;
45011;SDS011;63444;48.148;11.542;2023-08-20T05:46:01;5.57;;;3.25;;
45011;SDS011;63444;48.148;11.542;2023-08-20T05:48:27;5.93;;;3.50;;
45011;SDS011;63444;48.148;11.542;2023-08-20T05:50:53;6.38;;;3.60;;
45011;SDS011;63444;48.148;11.542;2023-08-20T05:53:19;4.78;;;3.17;;
45011;SDS011;63444;48.148;11.542;2023-08-20T05:55:45;5.00;;;3.47;;
45011;SDS011;63444;48.148;11.542;2023-08-20T05:58:10;4.90;;;3.28;;
45011;SDS011;63444;48.148;11.542;2023-08-20T06:00:36;7.18;;;3.03;;
45011;SDS011;63444;48.148;11.542;2023-08-20T06:03:02;7.25;;;3.28;;
45011;SDS011;63444;48.148;11.542;2023-08-20T06:05:28;7.07;;;3.03;;
45011;SDS011;63444;48.148;11.542;2023-08-20T06:07:53;6.95;;;2.85;;
45011;SDS011;63444;48.148;11.542;2023-08-20T06:10:19;4.75;;;3.00;;
45011;SDS011;63444;48.148;11.542;2023-08-20T06:12:46;3.90;;;3.05;;
45011;SDS011;63444;48.148;11.542;2023-08-20T06:15:11;5.32;;;2.95;;
45011;SDS011;63444;48.148;11.542;2023-08-20T06:17:38;4.18;;;2.88;;
45011;SDS011;63444;48.148;11.542;2023-08-20T06:20:04;6.75;;;3.30;;
45011;SDS011;63444;48.148;11.542;2023-08-20T06:22:33;5.80;;;3.03;;
45011;SDS011;63444;48.148;11.542;2023-08-20T06:24:58;6.95;;;3.15;;
45011;SDS011;63444;48.148;11.542;2023-08-20T06:27:24;5.80;;;2.90;;
45011;SDS011;63444;48.148;11.542;2023-08-20T06:29:49;5.18;;;3.08;;
45011;SDS011;63444;48.148;11.542;2023-08-20T06:32:15;3.83;;;2.70;;
45011;SDS011;63444;48.148;11.542;2023-08-20T06:34:40;5.60;;;2.90;;
45011;SDS011;63444;48.148;11.542;2023-08-20T06:37:06;5.65;;;3.10;;
45011;SDS011;63444;48.148;11.542;2023-08-20T06:39:32;4.60;;;2.55;;
45011;SDS011;63444;48.148;11.542;2023-08-20T06:41:57;5.85;;;2.35;;
45011;SDS011;63444;48.148;11.542;2023-08-20T06:44:23;4.90;;;2.80;;
45011;SDS011;63444;48.148;11.542;2023-08-20T06:46:48;5.15;;;2.63;;
45011;SDS011;63444;48.148;11.542;2023-08-20T06:49:14;4.15;;;2.42;;
45011;SDS011;63444;48.148;11.542;2023-08-20T06:51:40;4.88;;;2.90;;
45011;SDS011;63444;48.148;11.542;2023-08-20T06:54:05;6.97;;;3.17;;
45011;SDS011;63444;48.148;11.542;2023-08-20T06:56:31;4.97;;;2.72;;
45011;SDS011;63444;48.148;11.542;2023-08-20T06:58:57;8.25;;;2.80;;
45011;SDS011;63444;48.148;11.542;2023-08-20T07:01:23;5.90;;;2.70;;
45011;SDS011;63444;48.148;11.542;2023-08-20T07:03:48;7.55;;;2.85;;
45011;SDS011;63444;48.148;11.542;2023-08-20T07:06:14;5.32;;;2.72;;
45011;SDS011;63444;48.148;11.542;2023-08-20T07:08:41;8.05;;;3.00;;
45011;SDS011;63444;48.148;11.542;2023-08-20T07:11:07;5.78;;;2.60;;
45011;SDS011;63444;48.148;11.542;2023-08-20T07:13:33;5.50;;;2.58;;
45011;SDS011;63444;48.148;11.542;2023-08-20T07:15:59;7.22;;;3.05;;
45011;SDS011;63444;48.148;11.542;2023-08-20T07:18:24;4.47;;;2.40;;
45011;SDS011;63444;48.148;11.542;2023-08-20T07:20:50;4.40;;;2.60;;
45011;SDS011;63444;48.148;11.542;2023-08-20T07:23:18;6.32;;;2.72;;
45011;SDS011;63444;48.148;11.542;2023-08-20T07:25:44;6.90;;;2.53;;
45011;SDS011;63444;48.148;11.542;2023-08-20T07:28:10;4.88;;;2.40;;
45011;SDS011;63444;48.148;11.542;2023-08-20T07:30:36;7.30;;;2.60;;
45011;SDS011;63444;48.148;11.542;2023-08-20T07:33:02;5.78;;;2.40;;
45011;SDS011;63444;48.148;11.542;2023-08-20T07:35:28;4.90;;;2.70;;
45011;SDS011;63444;48.148;11.542;2023-08-20T07:37:54;6.28;;;2.47;;
45011;SDS011;63444;48.148;11.542;2023-08-20T07:40:19;3.38;;;2.50;;
45011;SDS011;63444;48.148;11.542;2023-08-20T07:42:45;4.05;;;3.17;;
45011;SDS011;63444;48.148;11.542;2023-08-20T07:45:10;6.72;;;2.65;;
45011;SDS011;63444;48.148;11.542;2023-08-20T07:47:36;4.85;;;2.33;;
45011;SDS011;63444;48.148;11.542;2023-08-20T07:50:05;4.57;;;2.70;;
45011;SDS011;63444;48.148;11.542;2023-08-20T07:52:32;4.00;;;2.47;;
45011;SDS011;63444;48.148;11.542;2023-08-20T07:54:58;3.15;;;2.10;;
45011;SDS011;63444;48.148;11.542;2023-08-20T07:57:23;4.03;;;2.53;;
45011;SDS011;63444;48.148;11.542;2023-08-20T07:59:49;3.90;;;2.45;;
45011;SDS011;63444;48.148;11.542;2023-08-20T08:02:15;4.40;;;2.83;;
45011;SDS011;63444;48.148;11.542;2023-08-20T08:04:41;3.47;;;2.50;;
45011;SDS011;63444;48.148;11.542;2023-08-20T08:07:07;5.47;;;2.70;;
45011;SDS011;63444;48.148;11.542;2023-08-20T08:09:33;5.60;;;2.72;;
45011;SDS011;63444;48.148;11.542;2023-08-20T08:11:59;5.60;;;3.08;;
45011;SDS011;63444;48.148;11.542;2023-08-20T08:14:25;4.15;;;2.65;;
45011;SDS011;63444;48.148;11.542;2023-08-20T08:16:51;8.93;;;2.80;;
45011;SDS011;63444;48.148;11.542;2023-08-20T08:19:17;3.83;;;2.70;;
45011;SDS011;63444;48.148;11.542;2023-08-20T08:21:43;6.00;;;2.83;;
45011;SDS011;63444;48.148;11.542;2023-08-20T08:24:10;6.10;;;2.78;;
45011;SDS011;63444;48.148;11.542;2023-08-20T08:26:36;4.53;;;2.83;;
45011;SDS011;63444;48.148;11.542;2023-08-20T08:29:02;7.07;;;2.60;;
45011;SDS011;63444;48.148;11.542;2023-08-20T08:31:28;5.70;;;2.50;;
45011;SDS011;63444;48.148;11.542;2023-08-20T08:33:54;4.15;;;2.55;;
45011;SDS011;63444;48.148;11.542;2023-08-20T08:36:20;4.30;;;2.55;;
45011;SDS011;63444;48.148;11.542;2023-08-20T08:38:45;4.90;;;2.50;;
45011;SDS011;63444;48.148;11.542;2023-08-20T08:41:12;4.15;;;2.67;;
45011;SDS011;63444;48.148;11.542;2023-08-20T08:43:38;3.78;;;2.67;;
45011;SDS011;63444;48.148;11.542;2023-08-20T08:46:06;4.80;;;2.67;;
45011;SDS011;63444;48.148;11.542;2023-08-20T08:48:33;3.55;;;2.50;;
45011;SDS011;63444;48.148;11.542;2023-08-20T08:51:02;3.28;;;2.30;;
45011;SDS011;63444;48.148;11.542;2023-08-20T08:53:28;7.68;;;2.38;;
45011;SDS011;63444;48.148;11.542;2023-08-20T08:55:57;4.50;;;2.85;;
45011;SDS011;63444;48.148;11.542;2023-08-20T08:58:23;5.22;;;2.22;;
45011;SDS011;63444;48.148;11.542;2023-08-20T09:00:48;3.83;;;2.75;;
45011;SDS011;63444;48.148;11.542;2023-08-20T09:03:14;4.43;;;2.33;;
45011;SDS011;63444;48.148;11.542;2023-08-20T09:05:50;3.83;;;2.10;;
45011;SDS011;63444;48.148;11.542;2023-08-20T09:08:20;3.22;;;2.45;;
45011;SDS011;63444;48.148;11.542;2023-08-20T09:10:49;4.30;;;2.40;;
45011;SDS011;63444;48.148;11.542;2023-08-20T09:13:16;3.47;;;2.67;;
45011;SDS011;63444;48.148;11.542;2023-08-20T09:15:42;2.47;;;2.15;;
45011;SDS011;63444;48.148;11.542;2023-08-20T09:18:09;5.65;;;2.72;;
45011;SDS011;63444;48.148;11.542;2023-08-20T09:20:35;3.65;;;2.10;;
45011;SDS011;63444;48.148;11.542;2023-08-20T09:23:02;4.30;;;2.30;;
45011;SDS011;63444;48.148;11.542;2023-08-20T09:25:28;3.65;;;2.50;;
45011;SDS011;63444;48.148;11.542;2023-08-20T09:27:53;2.67;;;2.20;;
45011;SDS011;63444;48.148;11.542;2023-08-20T09:30:19;3.78;;;2.65;;
45011;SDS011;63444;48.148;11.542;2023-08-20T09:35:34;3.78;;;2.40;;
45011;SDS011;63444;48.148;11.542;2023-08-20T09:38:00;5.57;;;2.60;;
45011;SDS011;63444;48.148;11.542;2023-08-20T09:40:29;4.55;;;2.80;;
45011;SDS011;63444;48.148;11.542;2023-08-20T09:42:55;5.40;;;2.70;;
45011;SDS011;63444;48.148;11.542;2023-08-20T09:45:22;3.40;;;2.50;;
45011;SDS011;63444;48.148;11.542;2023-08-20T09:47:49;4.03;;;2.60;;
45011;SDS011;63444;48.148;11.542;2023-08-20T09:50:21;5.25;;;2.45;;
45011;SDS011;63444;48.148;11.542;2023-08-20T09:52:54;3.95;;;2.38;;
45011;SDS011;63444;48.148;11.542;2023-08-20T09:55:29;5.60;;;2.53;;
45011;SDS011;63444;48.148;11.542;2023-08-20T09:57:57;4.13;;;2.63;;
45011;SDS011;63444;48.148;11.542;2023-08-20T10:00:25;4.10;;;2.38;;
45011;SDS011;63444;48.148;11.542;2023-08-20T10:02:52;4.35;;;2.30;;
45011;SDS011;63444;48.148;11.542;2023-08-20T10:05:18;4.82;;;2.00;;
45011;SDS011;63444;48.148;11.542;2023-08-20T10:07:45;4.00;;;2.50;;
45011;SDS011;63444;48.148;11.542;2023-08-20T10:10:12;3.60;;;2.40;;
45011;SDS011;63444;48.148;11.542;2023-08-20T10:12:38;4.53;;;2.22;;
45011;SDS011;63444;48.148;11.542;2023-08-20T10:15:06;4.95;;;2.35;;
45011;SDS011;63444;48.148;11.542;2023-08-20T10:17:33;2.70;;;2.20;;
45011;SDS011;63444;48.148;11.542;2023-08-20T10:19:59;4.10;;;2.75;;
45011;SDS011;63444;48.148;11.542;2023-08-20T10:22:32;5.88;;;2.78;;
45011;SDS011;63444;48.148;11.542;2023-08-20T10:24:58;3.97;;;2.22;;
45011;SDS011;63444;48.148;11.542;2023-08-20T10:27:32;3.28;;;2.30;;
45011;SDS011;63444;48.148;11.542;2023-08-20T10:30:00;4.15;;;2.28;;
45011;SDS011;63444;48.148;11.542;2023-08-20T10:35:26;3.17;;;2.53;;
45011;SDS011;63444;48.148;11.542;2023-08-20T10:38:03;4.65;;;2.40;;
45011;SDS011;63444;48.148;11.542;2023-08-20T10:43:34;3.83;;;2.63;;
45011;SDS011;63444;48.148;11.542;2023-08-20T10:48:32;2.90;;;2.30;;
45011;SDS011;63444;48.148;11.542;2023-08-20T10:51:05;5.93;;;2.83;;
45011;SDS011;63444;48.148;11.542;2023-08-20T10:53:48;3.80;;;2.55;;
45011;SDS011;63444;48.148;11.542;2023-08-20T10:59:18;5.20;;;2.55;;
45011;SDS011;63444;48.148;11.542;2023-08-20T11:01:48;3.83;;;2.30;;
45011;SDS011;63444;48.148;11.542;2023-08-20T11:04:25;5.90;;;2.60;;
45011;SDS011;63444;48.148;11.542;2023-08-20T11:06:54;3.38;;;2.20;;
45011;SDS011;63444;48.148;11.542;2023-08-20T11:09:24;3.80;;;2.65;;
45011;SDS011;63444;48.148;11.542;2023-08-20T11:11:51;3.63;;;2.42;;
45011;SDS011;63444;48.148;11.542;2023-08-20T11:14:18;5.18;;;2.65;;
45011;SDS011;63444;48.148;11.542;2023-08-20T11:16:45;4.00;;;2.60;;
45011;SDS011;63444;48.148;11.542;2023-08-20T11:19:11;6.13;;;2.30;;
45011;SDS011;63444;48.148;11.542;2023-08-20T11:21:38;4.05;;;2.42;;
45011;SDS011;63444;48.148;11.542;2023-08-20T11:24:05;3.88;;;2.75;;
45011;SDS011;63444;48.148;11.542;2023-08-20T11:26:32;3.45;;;2.33;;
45011;SDS011;63444;48.148;11.542;2023-08-20T11:28:59;3.22;;;2.30;;
45011;SDS011;63444;48.148;11.542;2023-08-20T11:31:25;6.22;;;2.35;;
45011;SDS011;63444;48.148;11.542;2023-08-20T11:33:51;5.07;;;2.30;;
45011;SDS011;63444;48.148;11.542;2023-08-20T11:36:17;4.28;;;1.95;;
45011;SDS011;63444;48.148;11.542;2023-08-20T11:38:51;3.15;;;2.25;;
45011;SDS011;63444;48.148;11.542;2023-08-20T11:41:20;3.05;;;2.25;;
45011;SDS011;63444;48.148;11.542;2023-08-20T11:43:49;3.90;;;2.40;;
45011;SDS011;63444;48.148;11.542;2023-08-20T11:46:17;2.67;;;2.00;;
45011;SDS011;63444;48.148;11.542;2023-08-20T11:49:03;6.05;;;2.53;;
45011;SDS011;63444;48.148;11.542;2023-08-20T11:51:42;3.10;;;2.25;;
45011;SDS011;63444;48.148;11.542;2023-08-20T11:54:11;4.03;;;2.38;;
45011;SDS011;63444;48.148;11.542;2023-08-20T11:56:42;3.75;;;2.22;;
45011;SDS011;63444;48.148;11.542;2023-08-20T11:59:10;5.70;;;2.33;;
45011;SDS011;63444;48.148;11.542;2023-08-20T12:01:36;7.53;;;2.55;;
45011;SDS011;63444;48.148;11.542;2023-08-20T12:04:05;3.28;;;2.10;;
45011;SDS011;63444;48.148;11.542;2023-08-20T12:06:34;6.63;;;2.60;;
45011;SDS011;63444;48.148;11.542;2023-08-20T12:09:00;5.07;;;2.28;;
45011;SDS011;63444;48.148;11.542;2023-08-20T12:11:28;4.38;;;2.25;;
45011;SDS011;63444;48.148;11.542;2023-08-20T12:13:55;3.45;;;1.95;;
45011;SDS011;63444;48.148;11.542;2023-08-20T12:16:24;3.55;;;2.35;;
45011;SDS011;63444;48.148;11.542;2023-08-20T12:18:52;4.68;;;2.42;;
45011;SDS011;63444;48.148;11.542;2023-08-20T12:21:18;6.55;;;2.22;;
45011;SDS011;63444;48.148;11.542;2023-08-20T12:23:44;3.30;;;2.30;;
45011;SDS011;63444;48.148;11.542;2023-08-20T12:26:09;3.58;;;2.30;;
45011;SDS011;63444;48.148;11.542;2023-08-20T12:28:35;5.38;;;2.25;;
45011;SDS011;63444;48.148;11.542;2023-08-20T12:31:00;2.78;;;2.25;;
45011;SDS011;63444;48.148;11.542;2023-08-20T12:33:26;5.93;;;2.55;;
45011;SDS011;63444;48.148;11.542;2023-08-20T12:35:53;6.35;;;2.30;;
45011;SDS011;63444;48.148;11.542;2023-08-20T12:38:19;4.13;;;2.50;;
45011;SDS011;63444;48.148;11.542;2023-08-20T12:40:45;4.57;;;2.60;;
45011;SDS011;63444;48.148;11.542;2023-08-20T12:43:11;4.28;;;2.65;;
45011;SDS011;63444;48.148;11.542;2023-08-20T12:45:36;4.22;;;2.38;;
45011;SDS011;63444;48.148;11.542;2023-08-20T12:48:03;2.75;;;2.20;;
45011;SDS011;63444;48.148;11.542;2023-08-20T12:50:29;5.05;;;2.30;;
45011;SDS011;63444;48.148;11.542;2023-08-20T12:52:55;3.92;;;2.40;;
45011;SDS011;63444;48.148;11.542;2023-08-20T12:55:21;4.15;;;2.58;;
45011;SDS011;63444;48.148;11.542;2023-08-20T12:57:54;3.17;;;2.33;;
45011;SDS011;63444;48.148;11.542;2023-08-20T13:00:22;3.45;;;2.28;;
45011;SDS011;63444;48.148;11.542;2023-08-20T13:02:50;5.07;;;2.90;;
45011;SDS011;63444;48.148;11.542;2023-08-20T13:05:16;3.08;;;2.30;;
45011;SDS011;63444;48.148;11.542;2023-08-20T13:07:42;3.55;;;2.22;;
45011;SDS011;63444;48.148;11.542;2023-08-20T13:10:08;3.30;;;2.22;;
45011;SDS011;63444;48.148;11.542;2023-08-20T13:12:34;3.30;;;2.50;;
45011;SDS011;63444;48.148;11.542;2023-08-20T13:15:00;4.40;;;2.42;;
45011;SDS011;63444;48.148;11.542;2023-08-20T13:17:28;2.65;;;2.40;;
45011;SDS011;63444;48.148;11.542;2023-08-20T13:19:55;3.80;;;2.30;;
45011;SDS011;63444;48.148;11.542;2023-08-20T13:22:21;3.05;;;2.30;;
45011;SDS011;63444;48.148;11.542;2023-08-20T13:24:46;4.30;;;2.47;;
45011;SDS011;63444;48.148;11.542;2023-08-20T13:27:12;4.07;;;2.38;;
45011;SDS011;63444;48.148;11.542;2023-08-20T13:29:38;2.50;;;2.30;;
45011;SDS011;63444;48.148;11.542;2023-08-20T13:32:05;3.60;;;2.15;;
45011;SDS011;63444;48.148;11.542;2023-08-20T13:34:31;3.38;;;2.30;;
45011;SDS011;63444;48.148;11.542;2023-08-20T13:36:57;3.65;;;2.35;;
45011;SDS011;63444;48.148;11.542;2023-08-20T13:39:22;2.60;;;2.40;;
45011;SDS011;63444;48.148;11.542;2023-08-20T13:41:48;3.63;;;2.70;;
45011;SDS011;63444;48.148;11.542;2023-08-20T13:44:14;4.43;;;2.78;;
45011;SDS011;63444;48.148;11.542;2023-08-20T13:46:40;3.92;;;2.65;;
45011;SDS011;63444;48.148;11.542;2023-08-20T13:49:06;5.45;;;2.90;;
45011;SDS011;63444;48.148;11.542;2023-08-20T13:51:32;4.25;;;2.53;;
45011;SDS011;63444;48.148;11.542;2023-08-20T13:53:58;4.63;;;2.65;;
45011;SDS011;63444;48.148;11.542;2023-08-20T13:56:23;2.97;;;2.45;;
45011;SDS011;63444;48.148;11.542;2023-08-20T13:58:50;3.90;;;2.45;;
45011;SDS011;63444;48.148;11.542;2023-08-20T14:01:18;3.53;;;2.60;;
45011;SDS011;63444;48.148;11.542;2023-08-20T14:03:44;3.35;;;2.67;;
45011;SDS011;63444;48.148;11.542;2023-08-20T14:06:09;5.45;;;2.75;;
45011;SDS011;63444;48.148;11.542;2023-08-20T14:08:35;4.15;;;2.45;;
45011;SDS011;63444;48.148;11.542;2023-08-20T14:11:00;4.88;;;2.95;;
45011;SDS011;63444;48.148;11.542;2023-08-20T14:13:26;5.32;;;2.60;;
45011;SDS011;63444;48.148;11.542;2023-08-20T14:15:52;5.82;;;2.80;;
45011;SDS011;63444;48.148;11.542;2023-08-20T14:18:17;3.05;;;2.70;;
45011;SDS011;63444;48.148;11.542;2023-08-20T14:20:43;3.97;;;2.63;;
45011;SDS011;63444;48.148;11.542;2023-08-20T14:23:08;5.57;;;2.72;;
45011;SDS011;63444;48.148;11.542;2023-08-20T14:25:34;5.22;;;3.08;;
45011;SDS011;63444;48.148;11.542;2023-08-20T14:27:59;3.45;;;2.70;;
45011;SDS011;63444;48.148;11.542;2023-08-20T14:30:25;4.20;;;2.80;;
45011;SDS011;63444;48.148;11.542;2023-08-20T14:32:52;3.17;;;2.60;;
45011;SDS011;63444;48.148;11.542;2023-08-20T14:35:19;2.50;;;2.30;;
45011;SDS011;63444;48.148;11.542;2023-08-20T14:37:45;3.08;;;2.78;;
45011;SDS011;63444;48.148;11.542;2023-08-20T14:40:10;3.92;;;2.63;;
45011;SDS011;63444;48.148;11.542;2023-08-20T14:42:36;2.90;;;2.50;;
45011;SDS011;63444;48.148;11.542;2023-08-20T14:45:02;3.67;;;2.55;;
45011;SDS011;63444;48.148;11.542;2023-08-20T14:47:29;3.40;;;2.63;;
45011;SDS011;63444;48.148;11.542;2023-08-20T14:49:56;4.07;;;2.40;;